sensor_id;sensor_type;location;lat;lon;timestamp;P1;durP1;ratioP1;P2;durP2;ratioP2
47349;SDS011;33088;51.982;5.872;2023-03-01T00:02:20;6.30;;;3.08;;
47349;SDS011;33088;51.982;5.872;2023-03-01T00:04:46;4.00;;;3.05;;
47349;SDS011;33088;51.982;5.872;2023-03-01T00:07:12;7.72;;;3.15;;
47349;SDS011;33088;51.982;5.872;2023-03-01T00:09:37;4.95;;;3.03;;
47349;SDS011;33088;51.982;5.872;2023-03-01T00:12:05;4.75;;;3.22;;
47349;SDS011;33088;51.982;5.872;2023-03-01T00:14:31;5.65;;;2.88;;
47349;SDS011;33088;51.982;5.872;2023-03-01T00:16:57;8.27;;;5.10;;
47349;SDS011;33088;51.982;5.872;2023-03-01T00:19:22;7.07;;;3.40;;
47349;SDS011;33088;51.982;5.872;2023-03-01T00:21:48;5.63;;;3.10;;
47349;SDS011;33088;51.982;5.872;2023-03-01T00:24:14;6.00;;;2.60;;
47349;SDS011;33088;51.982;5.872;2023-03-01T00:26:40;5.90;;;3.42;;
47349;SDS011;33088;51.982;5.872;2023-03-01T00:29:05;6.22;;;3.83;;
47349;SDS011;33088;51.982;5.872;2023-03-01T00:31:31;5.60;;;3.28;;
47349;SDS011;33088;51.982;5.872;2023-03-01T00:33:59;8.43;;;3.90;;
47349;SDS011;33088;51.982;5.872;2023-03-01T00:36:31;6.82;;;3.72;;
47349;SDS011;33088;51.982;5.872;2023-03-01T00:38:58;5.55;;;3.42;;
47349;SDS011;33088;51.982;5.872;2023-03-01T00:41:25;6.72;;;3.03;;
47349;SDS011;33088;51.982;5.872;2023-03-01T00:43:52;8.35;;;3.90;;
47349;SDS011;33088;51.982;5.872;2023-03-01T00:46:19;5.45;;;3.63;;
47349;SDS011;33088;51.982;5.872;2023-03-01T00:48:48;7.65;;;3.78;;
47349;SDS011;33088;51.982;5.872;2023-03-01T00:53:41;10.68;;;4.00;;
47349;SDS011;33088;51.982;5.872;2023-03-01T00:56:08;8.80;;;4.47;;
47349;SDS011;33088;51.982;5.872;2023-03-01T00:58:35;7.75;;;4.43;;
47349;SDS011;33088;51.982;5.872;2023-03-01T01:01:06;5.13;;;3.72;;
47349;SDS011;33088;51.982;5.872;2023-03-01T01:03:42;6.43;;;3.97;;
47349;SDS011;33088;51.982;5.872;2023-03-01T01:06:13;11.32;;;4.57;;
47349;SDS011;33088;51.982;5.872;2023-03-01T01:08:47;7.93;;;4.10;;
47349;SDS011;33088;51.982;5.872;2023-03-01T01:11:13;6.07;;;4.32;;
47349;SDS011;33088;51.982;5.872;2023-03-01T01:13:40;9.85;;;4.97;;
47349;SDS011;33088;51.982;5.872;2023-03-01T01:16:07;6.07;;;4.30;;
47349;SDS011;33088;51.982;5.872;2023-03-01T01:18:33;10.02;;;4.55;;
47349;SDS011;33088;51.982;5.872;2023-03-01T01:21:02;6.30;;;4.28;;
47349;SDS011;33088;51.982;5.872;2023-03-01T01:23:30;6.68;;;4.80;;
47349;SDS011;33088;51.982;5.872;2023-03-01T01:25:55;6.32;;;4.47;;
47349;SDS011;33088;51.982;5.872;2023-03-01T01:28:21;9.23;;;5.15;;
47349;SDS011;33088;51.982;5.872;2023-03-01T01:30:47;7.05;;;4.53;;
47349;SDS011;33088;51.982;5.872;2023-03-01T01:33:12;7.30;;;4.68;;
47349;SDS011;33088;51.982;5.872;2023-03-01T01:35:38;9.30;;;5.43;;
47349;SDS011;33088;51.982;5.872;2023-03-01T01:38:03;8.13;;;4.93;;
47349;SDS011;33088;51.982;5.872;2023-03-01T01:40:29;9.15;;;4.72;;
47349;SDS011;33088;51.982;5.872;2023-03-01T01:42:55;9.15;;;5.13;;
47349;SDS011;33088;51.982;5.872;2023-03-01T01:45:24;8.75;;;4.57;;
47349;SDS011;33088;51.982;5.872;2023-03-01T01:47:54;5.60;;;4.35;;
47349;SDS011;33088;51.982;5.872;2023-03-01T01:50:23;10.02;;;5.10;;
47349;SDS011;33088;51.982;5.872;2023-03-01T01:52:49;8.70;;;4.45;;
47349;SDS011;33088;51.982;5.872;2023-03-01T01:55:21;5.72;;;4.47;;
47349;SDS011;33088;51.982;5.872;2023-03-01T01:57:53;8.05;;;5.20;;
47349;SDS011;33088;51.982;5.872;2023-03-01T02:00:24;8.43;;;4.53;;
47349;SDS011;33088;51.982;5.872;2023-03-01T02:03:11;8.73;;;5.13;;
47349;SDS011;33088;51.982;5.872;2023-03-01T02:08:25;7.45;;;4.45;;
47349;SDS011;33088;51.982;5.872;2023-03-01T02:10:55;5.55;;;4.18;;
47349;SDS011;33088;51.982;5.872;2023-03-01T02:13:22;7.03;;;4.78;;
47349;SDS011;33088;51.982;5.872;2023-03-01T02:15:48;10.82;;;4.93;;
47349;SDS011;33088;51.982;5.872;2023-03-01T02:18:16;8.65;;;4.68;;
47349;SDS011;33088;51.982;5.872;2023-03-01T02:23:21;7.70;;;4.68;;
47349;SDS011;33088;51.982;5.872;2023-03-01T02:28:30;9.93;;;4.78;;
47349;SDS011;33088;51.982;5.872;2023-03-01T02:31:05;5.95;;;4.55;;
47349;SDS011;33088;51.982;5.872;2023-03-01T02:33:50;8.95;;;4.93;;
47349;SDS011;33088;51.982;5.872;2023-03-01T02:36:24;8.77;;;4.88;;
47349;SDS011;33088;51.982;5.872;2023-03-01T02:38:57;7.88;;;5.03;;
47349;SDS011;33088;51.982;5.872;2023-03-01T02:41:25;6.45;;;4.35;;
47349;SDS011;33088;51.982;5.872;2023-03-01T02:43:53;6.80;;;4.55;;
47349;SDS011;33088;51.982;5.872;2023-03-01T02:46:21;10.95;;;4.93;;
47349;SDS011;33088;51.982;5.872;2023-03-01T02:48:50;7.90;;;4.28;;
47349;SDS011;33088;51.982;5.872;2023-03-01T02:51:31;10.10;;;4.70;;
47349;SDS011;33088;51.982;5.872;2023-03-01T02:54:28;8.63;;;4.40;;
47349;SDS011;33088;51.982;5.872;2023-03-01T02:57:01;6.45;;;4.28;;
47349;SDS011;33088;51.982;5.872;2023-03-01T02:59:30;7.00;;;4.07;;
47349;SDS011;33088;51.982;5.872;2023-03-01T03:02:06;13.50;;;4.60;;
47349;SDS011;33088;51.982;5.872;2023-03-01T03:04:45;10.40;;;4.82;;
47349;SDS011;33088;51.982;5.872;2023-03-01T03:07:11;7.03;;;4.03;;
47349;SDS011;33088;51.982;5.872;2023-03-01T03:09:37;6.00;;;4.18;;
47349;SDS011;33088;51.982;5.872;2023-03-01T03:12:03;5.75;;;4.00;;
47349;SDS011;33088;51.982;5.872;2023-03-01T03:14:29;7.45;;;4.45;;
47349;SDS011;33088;51.982;5.872;2023-03-01T03:16:54;6.38;;;4.15;;
47349;SDS011;33088;51.982;5.872;2023-03-01T03:19:20;7.32;;;4.00;;
47349;SDS011;33088;51.982;5.872;2023-03-01T03:21:46;8.73;;;4.25;;
47349;SDS011;33088;51.982;5.872;2023-03-01T03:24:12;7.30;;;4.20;;
47349;SDS011;33088;51.982;5.872;2023-03-01T03:26:37;6.28;;;3.75;;
47349;SDS011;33088;51.982;5.872;2023-03-01T03:29:03;6.90;;;4.05;;
47349;SDS011;33088;51.982;5.872;2023-03-01T03:31:29;7.68;;;4.93;;
47349;SDS011;33088;51.982;5.872;2023-03-01T03:33:54;6.50;;;4.15;;
47349;SDS011;33088;51.982;5.872;2023-03-01T03:36:23;6.05;;;4.00;;
47349;SDS011;33088;51.982;5.872;2023-03-01T03:38:50;7.90;;;5.60;;
47349;SDS011;33088;51.982;5.872;2023-03-01T03:41:16;9.18;;;4.28;;
47349;SDS011;33088;51.982;5.872;2023-03-01T03:43:42;11.18;;;4.38;;
47349;SDS011;33088;51.982;5.872;2023-03-01T03:46:09;7.60;;;4.05;;
47349;SDS011;33088;51.982;5.872;2023-03-01T03:48:37;9.82;;;4.25;;
47349;SDS011;33088;51.982;5.872;2023-03-01T03:51:09;6.80;;;3.85;;
47349;SDS011;33088;51.982;5.872;2023-03-01T03:53:39;8.20;;;4.15;;
47349;SDS011;33088;51.982;5.872;2023-03-01T03:56:05;9.07;;;4.78;;
47349;SDS011;33088;51.982;5.872;2023-03-01T03:58:33;6.40;;;3.95;;
47349;SDS011;33088;51.982;5.872;2023-03-01T04:00:59;6.80;;;4.40;;
47349;SDS011;33088;51.982;5.872;2023-03-01T04:03:26;7.13;;;4.25;;
47349;SDS011;33088;51.982;5.872;2023-03-01T04:05:52;9.65;;;4.38;;
47349;SDS011;33088;51.982;5.872;2023-03-01T04:08:18;10.38;;;4.75;;
47349;SDS011;33088;51.982;5.872;2023-03-01T04:10:47;8.55;;;4.55;;
47349;SDS011;33088;51.982;5.872;2023-03-01T04:13:21;5.30;;;4.03;;
47349;SDS011;33088;51.982;5.872;2023-03-01T04:15:51;6.70;;;4.00;;
47349;SDS011;33088;51.982;5.872;2023-03-01T04:18:18;9.40;;;4.90;;
47349;SDS011;33088;51.982;5.872;2023-03-01T04:20:45;5.80;;;3.60;;
47349;SDS011;33088;51.982;5.872;2023-03-01T04:23:16;5.63;;;3.72;;
47349;SDS011;33088;51.982;5.872;2023-03-01T04:25:49;6.57;;;4.18;;
47349;SDS011;33088;51.982;5.872;2023-03-01T04:28:33;8.70;;;4.43;;
47349;SDS011;33088;51.982;5.872;2023-03-01T04:31:12;5.82;;;3.60;;
47349;SDS011;33088;51.982;5.872;2023-03-01T04:33:50;8.10;;;4.00;;
47349;SDS011;33088;51.982;5.872;2023-03-01T04:36:18;6.30;;;4.03;;
47349;SDS011;33088;51.982;5.872;2023-03-01T04:38:46;6.40;;;4.30;;
47349;SDS011;33088;51.982;5.872;2023-03-01T04:41:16;6.75;;;3.97;;
47349;SDS011;33088;51.982;5.872;2023-03-01T04:43:42;5.75;;;4.10;;
47349;SDS011;33088;51.982;5.872;2023-03-01T04:46:10;6.50;;;4.00;;
47349;SDS011;33088;51.982;5.872;2023-03-01T04:48:38;6.82;;;4.03;;
47349;SDS011;33088;51.982;5.872;2023-03-01T04:51:04;6.57;;;4.10;;
47349;SDS011;33088;51.982;5.872;2023-03-01T04:53:31;8.25;;;4.32;;
47349;SDS011;33088;51.982;5.872;2023-03-01T04:55:57;7.88;;;4.15;;
47349;SDS011;33088;51.982;5.872;2023-03-01T04:58:24;10.32;;;4.45;;
47349;SDS011;33088;51.982;5.872;2023-03-01T05:00:51;7.45;;;4.03;;
47349;SDS011;33088;51.982;5.872;2023-03-01T05:03:17;7.35;;;4.18;;
47349;SDS011;33088;51.982;5.872;2023-03-01T05:05:44;6.45;;;3.97;;
47349;SDS011;33088;51.982;5.872;2023-03-01T05:08:11;7.50;;;4.53;;
47349;SDS011;33088;51.982;5.872;2023-03-01T05:10:43;9.05;;;4.43;;
47349;SDS011;33088;51.982;5.872;2023-03-01T05:13:11;8.35;;;4.82;;
47349;SDS011;33088;51.982;5.872;2023-03-01T05:15:38;7.30;;;4.10;;
47349;SDS011;33088;51.982;5.872;2023-03-01T05:18:05;9.50;;;3.90;;
47349;SDS011;33088;51.982;5.872;2023-03-01T05:20:36;8.82;;;4.88;;
47349;SDS011;33088;51.982;5.872;2023-03-01T05:23:03;5.95;;;3.85;;
47349;SDS011;33088;51.982;5.872;2023-03-01T05:25:30;5.28;;;3.65;;
47349;SDS011;33088;51.982;5.872;2023-03-01T05:27:58;7.40;;;4.45;;
47349;SDS011;33088;51.982;5.872;2023-03-01T05:30:35;5.22;;;4.05;;
47349;SDS011;33088;51.982;5.872;2023-03-01T05:33:01;6.00;;;3.80;;
47349;SDS011;33088;51.982;5.872;2023-03-01T05:35:27;8.98;;;4.38;;
47349;SDS011;33088;51.982;5.872;2023-03-01T05:37:53;6.20;;;3.83;;
47349;SDS011;33088;51.982;5.872;2023-03-01T05:40:20;5.38;;;3.17;;
47349;SDS011;33088;51.982;5.872;2023-03-01T05:42:48;5.93;;;4.10;;
47349;SDS011;33088;51.982;5.872;2023-03-01T05:45:17;8.65;;;6.10;;
47349;SDS011;33088;51.982;5.872;2023-03-01T05:47:43;8.15;;;5.53;;
47349;SDS011;33088;51.982;5.872;2023-03-01T05:50:14;8.50;;;3.92;;
47349;SDS011;33088;51.982;5.872;2023-03-01T05:53:03;6.95;;;4.22;;
47349;SDS011;33088;51.982;5.872;2023-03-01T05:55:32;6.53;;;4.30;;
47349;SDS011;33088;51.982;5.872;2023-03-01T05:57:59;7.40;;;4.53;;
47349;SDS011;33088;51.982;5.872;2023-03-01T06:00:27;10.18;;;4.72;;
47349;SDS011;33088;51.982;5.872;2023-03-01T06:02:54;5.82;;;4.13;;
47349;SDS011;33088;51.982;5.872;2023-03-01T06:05:20;8.82;;;4.38;;
47349;SDS011;33088;51.982;5.872;2023-03-01T06:07:47;12.20;;;5.15;;
47349;SDS011;33088;51.982;5.872;2023-03-01T06:10:13;7.78;;;3.95;;
47349;SDS011;33088;51.982;5.872;2023-03-01T06:12:40;7.25;;;4.90;;
47349;SDS011;33088;51.982;5.872;2023-03-01T06:15:07;12.32;;;5.22;;
47349;SDS011;33088;51.982;5.872;2023-03-01T06:17:37;7.70;;;4.28;;
47349;SDS011;33088;51.982;5.872;2023-03-01T06:20:06;6.18;;;4.05;;
47349;SDS011;33088;51.982;5.872;2023-03-01T06:22:34;8.98;;;5.00;;
47349;SDS011;33088;51.982;5.872;2023-03-01T06:25:00;13.25;;;5.00;;
47349;SDS011;33088;51.982;5.872;2023-03-01T06:27:26;10.40;;;5.15;;
47349;SDS011;33088;51.982;5.872;2023-03-01T06:29:52;7.50;;;4.78;;
47349;SDS011;33088;51.982;5.872;2023-03-01T06:32:17;7.40;;;4.35;;
47349;SDS011;33088;51.982;5.872;2023-03-01T06:34:43;7.63;;;4.18;;
47349;SDS011;33088;51.982;5.872;2023-03-01T06:37:09;8.90;;;4.97;;
47349;SDS011;33088;51.982;5.872;2023-03-01T06:39:35;8.43;;;4.25;;
47349;SDS011;33088;51.982;5.872;2023-03-01T06:42:01;8.13;;;4.40;;
47349;SDS011;33088;51.982;5.872;2023-03-01T06:44:27;9.43;;;4.82;;
47349;SDS011;33088;51.982;5.872;2023-03-01T06:46:52;7.20;;;4.63;;
47349;SDS011;33088;51.982;5.872;2023-03-01T06:49:18;8.60;;;4.68;;
47349;SDS011;33088;51.982;5.872;2023-03-01T06:51:45;8.13;;;4.50;;
47349;SDS011;33088;51.982;5.872;2023-03-01T06:54:11;8.75;;;4.03;;
47349;SDS011;33088;51.982;5.872;2023-03-01T06:56:37;10.73;;;4.78;;
47349;SDS011;33088;51.982;5.872;2023-03-01T06:59:03;9.93;;;4.38;;
47349;SDS011;33088;51.982;5.872;2023-03-01T07:01:29;9.38;;;5.13;;
47349;SDS011;33088;51.982;5.872;2023-03-01T07:03:55;11.05;;;4.90;;
47349;SDS011;33088;51.982;5.872;2023-03-01T07:06:21;9.98;;;4.55;;
47349;SDS011;33088;51.982;5.872;2023-03-01T07:08:47;7.45;;;5.05;;
47349;SDS011;33088;51.982;5.872;2023-03-01T07:11:13;9.80;;;5.57;;
47349;SDS011;33088;51.982;5.872;2023-03-01T07:13:39;7.80;;;5.40;;
47349;SDS011;33088;51.982;5.872;2023-03-01T07:16:05;13.52;;;5.43;;
47349;SDS011;33088;51.982;5.872;2023-03-01T07:18:31;10.48;;;5.15;;
47349;SDS011;33088;51.982;5.872;2023-03-01T07:20:57;6.20;;;4.97;;
47349;SDS011;33088;51.982;5.872;2023-03-01T07:23:22;9.98;;;5.15;;
47349;SDS011;33088;51.982;5.872;2023-03-01T07:25:54;8.73;;;4.55;;
47349;SDS011;33088;51.982;5.872;2023-03-01T07:28:20;11.30;;;4.95;;
47349;SDS011;33088;51.982;5.872;2023-03-01T07:30:48;6.60;;;4.47;;
47349;SDS011;33088;51.982;5.872;2023-03-01T07:33:13;8.77;;;4.63;;
47349;SDS011;33088;51.982;5.872;2023-03-01T07:35:39;10.90;;;4.32;;
47349;SDS011;33088;51.982;5.872;2023-03-01T07:38:04;7.53;;;4.55;;
47349;SDS011;33088;51.982;5.872;2023-03-01T07:40:30;8.90;;;4.50;;
47349;SDS011;33088;51.982;5.872;2023-03-01T07:42:56;7.95;;;4.53;;
47349;SDS011;33088;51.982;5.872;2023-03-01T07:45:23;6.10;;;4.03;;
47349;SDS011;33088;51.982;5.872;2023-03-01T07:47:50;8.10;;;4.55;;
47349;SDS011;33088;51.982;5.872;2023-03-01T07:50:16;8.00;;;5.00;;
47349;SDS011;33088;51.982;5.872;2023-03-01T07:52:44;8.38;;;4.60;;
47349;SDS011;33088;51.982;5.872;2023-03-01T07:55:10;6.75;;;4.45;;
47349;SDS011;33088;51.982;5.872;2023-03-01T07:57:36;8.65;;;4.93;;
47349;SDS011;33088;51.982;5.872;2023-03-01T08:00:02;10.90;;;4.70;;
47349;SDS011;33088;51.982;5.872;2023-03-01T08:02:37;7.78;;;4.93;;
47349;SDS011;33088;51.982;5.872;2023-03-01T08:05:03;8.27;;;4.57;;
47349;SDS011;33088;51.982;5.872;2023-03-01T08:07:29;10.23;;;4.28;;
47349;SDS011;33088;51.982;5.872;2023-03-01T08:09:54;6.78;;;4.07;;
47349;SDS011;33088;51.982;5.872;2023-03-01T08:12:20;7.45;;;4.78;;
47349;SDS011;33088;51.982;5.872;2023-03-01T08:14:46;6.22;;;4.20;;
47349;SDS011;33088;51.982;5.872;2023-03-01T08:17:13;7.60;;;4.32;;
47349;SDS011;33088;51.982;5.872;2023-03-01T08:19:39;7.03;;;4.63;;
47349;SDS011;33088;51.982;5.872;2023-03-01T08:22:05;8.40;;;4.80;;
47349;SDS011;33088;51.982;5.872;2023-03-01T08:24:30;8.75;;;4.30;;
47349;SDS011;33088;51.982;5.872;2023-03-01T08:26:56;10.52;;;4.85;;
47349;SDS011;33088;51.982;5.872;2023-03-01T08:29:22;8.98;;;4.10;;
47349;SDS011;33088;51.982;5.872;2023-03-01T08:31:50;7.20;;;4.55;;
47349;SDS011;33088;51.982;5.872;2023-03-01T08:34:16;8.05;;;4.35;;
47349;SDS011;33088;51.982;5.872;2023-03-01T08:36:43;6.78;;;4.15;;
47349;SDS011;33088;51.982;5.872;2023-03-01T08:39:11;9.82;;;4.55;;
47349;SDS011;33088;51.982;5.872;2023-03-01T08:41:39;7.15;;;4.15;;
47349;SDS011;33088;51.982;5.872;2023-03-01T08:44:05;6.97;;;4.25;;
47349;SDS011;33088;51.982;5.872;2023-03-01T08:46:35;7.40;;;4.85;;
47349;SDS011;33088;51.982;5.872;2023-03-01T08:49:04;7.57;;;4.35;;
47349;SDS011;33088;51.982;5.872;2023-03-01T08:51:30;8.48;;;4.15;;
47349;SDS011;33088;51.982;5.872;2023-03-01T08:54:01;10.15;;;4.45;;
47349;SDS011;33088;51.982;5.872;2023-03-01T08:56:31;6.35;;;4.15;;
47349;SDS011;33088;51.982;5.872;2023-03-01T08:58:57;7.45;;;3.75;;
47349;SDS011;33088;51.982;5.872;2023-03-01T09:01:23;7.78;;;3.13;;
47349;SDS011;33088;51.982;5.872;2023-03-01T09:03:48;8.48;;;4.28;;
47349;SDS011;33088;51.982;5.872;2023-03-01T09:06:14;8.35;;;4.13;;
47349;SDS011;33088;51.982;5.872;2023-03-01T09:08:44;6.32;;;3.45;;
47349;SDS011;33088;51.982;5.872;2023-03-01T09:11:12;6.22;;;3.42;;
47349;SDS011;33088;51.982;5.872;2023-03-01T09:13:41;7.53;;;3.83;;
47349;SDS011;33088;51.982;5.872;2023-03-01T09:16:07;6.45;;;3.60;;
47349;SDS011;33088;51.982;5.872;2023-03-01T09:18:34;5.53;;;3.20;;
47349;SDS011;33088;51.982;5.872;2023-03-01T09:21:04;7.07;;;3.70;;
47349;SDS011;33088;51.982;5.872;2023-03-01T09:23:35;7.40;;;3.33;;
47349;SDS011;33088;51.982;5.872;2023-03-01T09:26:03;7.20;;;3.85;;
47349;SDS011;33088;51.982;5.872;2023-03-01T09:28:34;6.50;;;3.38;;
47349;SDS011;33088;51.982;5.872;2023-03-01T09:31:01;7.18;;;3.80;;
47349;SDS011;33088;51.982;5.872;2023-03-01T09:33:27;8.25;;;4.32;;
47349;SDS011;33088;51.982;5.872;2023-03-01T09:38:23;9.30;;;3.40;;
47349;SDS011;33088;51.982;5.872;2023-03-01T09:40:49;9.18;;;4.30;;
47349;SDS011;33088;51.982;5.872;2023-03-01T09:43:18;10.13;;;4.70;;
47349;SDS011;33088;51.982;5.872;2023-03-01T09:45:53;9.63;;;4.88;;
47349;SDS011;33088;51.982;5.872;2023-03-01T09:48:25;9.60;;;5.43;;
47349;SDS011;33088;51.982;5.872;2023-03-01T09:50:54;8.25;;;5.30;;
47349;SDS011;33088;51.982;5.872;2023-03-01T09:53:22;12.13;;;5.30;;
47349;SDS011;33088;51.982;5.872;2023-03-01T10:04:12;11.57;;;6.70;;
47349;SDS011;33088;51.982;5.872;2023-03-01T10:07:02;11.32;;;6.07;;
47349;SDS011;33088;51.982;5.872;2023-03-01T10:09:40;11.30;;;6.65;;
47349;SDS011;33088;51.982;5.872;2023-03-01T10:12:15;12.20;;;6.80;;
47349;SDS011;33088;51.982;5.872;2023-03-01T10:19:45;9.50;;;5.63;;
47349;SDS011;33088;51.982;5.872;2023-03-01T10:22:27;10.18;;;5.72;;
47349;SDS011;33088;51.982;5.872;2023-03-01T10:24:54;8.57;;;6.20;;
47349;SDS011;33088;51.982;5.872;2023-03-01T10:27:24;10.15;;;5.03;;
47349;SDS011;33088;51.982;5.872;2023-03-01T10:29:57;5.68;;;4.75;;
47349;SDS011;33088;51.982;5.872;2023-03-01T10:32:36;7.65;;;4.47;;
47349;SDS011;33088;51.982;5.872;2023-03-01T10:35:14;8.30;;;4.50;;
47349;SDS011;33088;51.982;5.872;2023-03-01T10:40:31;4.88;;;3.75;;
47349;SDS011;33088;51.982;5.872;2023-03-01T10:42:58;7.30;;;4.68;;
47349;SDS011;33088;51.982;5.872;2023-03-01T10:45:34;6.80;;;4.25;;
47349;SDS011;33088;51.982;5.872;2023-03-01T10:50:30;6.63;;;4.60;;
47349;SDS011;33088;51.982;5.872;2023-03-01T10:52:57;8.52;;;4.05;;
47349;SDS011;33088;51.982;5.872;2023-03-01T10:55:35;7.80;;;3.75;;
47349;SDS011;33088;51.982;5.872;2023-03-01T11:00:51;6.40;;;3.77;;
47349;SDS011;33088;51.982;5.872;2023-03-01T11:03:21;8.70;;;4.97;;
47349;SDS011;33088;51.982;5.872;2023-03-01T11:08:29;7.28;;;4.53;;
47349;SDS011;33088;51.982;5.872;2023-03-01T11:13:31;8.10;;;4.20;;
47349;SDS011;33088;51.982;5.872;2023-03-01T11:16:00;6.00;;;3.72;;
47349;SDS011;33088;51.982;5.872;2023-03-01T11:18:29;6.07;;;3.60;;
47349;SDS011;33088;51.982;5.872;2023-03-01T11:20:55;5.07;;;4.00;;
47349;SDS011;33088;51.982;5.872;2023-03-01T11:23:24;4.78;;;3.78;;
47349;SDS011;33088;51.982;5.872;2023-03-01T11:25:56;6.88;;;3.38;;
47349;SDS011;33088;51.982;5.872;2023-03-01T11:28:28;7.53;;;3.80;;
47349;SDS011;33088;51.982;5.872;2023-03-01T11:36:27;6.95;;;3.90;;
47349;SDS011;33088;51.982;5.872;2023-03-01T11:38:57;6.30;;;3.88;;
47349;SDS011;33088;51.982;5.872;2023-03-01T11:42:02;5.72;;;4.05;;
47349;SDS011;33088;51.982;5.872;2023-03-01T11:44:48;9.38;;;4.45;;
47349;SDS011;33088;51.982;5.872;2023-03-01T11:52:22;4.63;;;3.13;;
47349;SDS011;33088;51.982;5.872;2023-03-01T12:00:25;7.95;;;4.53;;
47349;SDS011;33088;51.982;5.872;2023-03-01T12:05:57;9.00;;;5.13;;
47349;SDS011;33088;51.982;5.872;2023-03-01T12:19:39;6.97;;;4.07;;
47349;SDS011;33088;51.982;5.872;2023-03-01T12:33:00;7.50;;;3.90;;
47349;SDS011;33088;51.982;5.872;2023-03-01T12:35:41;8.45;;;4.38;;
47349;SDS011;33088;51.982;5.872;2023-03-01T12:38:42;7.22;;;4.45;;
47349;SDS011;33088;51.982;5.872;2023-03-01T12:41:29;9.57;;;3.97;;
47349;SDS011;33088;51.982;5.872;2023-03-01T12:44:01;5.35;;;3.92;;
47349;SDS011;33088;51.982;5.872;2023-03-01T12:49:13;5.07;;;3.78;;
47349;SDS011;33088;51.982;5.872;2023-03-01T12:51:42;4.85;;;3.67;;
47349;SDS011;33088;51.982;5.872;2023-03-01T12:54:35;7.05;;;4.15;;
47349;SDS011;33088;51.982;5.872;2023-03-01T12:59:41;5.57;;;3.75;;
47349;SDS011;33088;51.982;5.872;2023-03-01T13:02:35;6.07;;;3.90;;
47349;SDS011;33088;51.982;5.872;2023-03-01T13:10:49;8.40;;;3.90;;
47349;SDS011;33088;51.982;5.872;2023-03-01T13:13:22;10.13;;;4.00;;
47349;SDS011;33088;51.982;5.872;2023-03-01T13:15:49;8.93;;;4.32;;
47349;SDS011;33088;51.982;5.872;2023-03-01T13:20:45;6.50;;;4.47;;
47349;SDS011;33088;51.982;5.872;2023-03-01T13:38:56;7.18;;;3.55;;
47349;SDS011;33088;51.982;5.872;2023-03-01T13:46:49;7.53;;;4.30;;
47349;SDS011;33088;51.982;5.872;2023-03-01T13:49:18;5.15;;;3.60;;
47349;SDS011;33088;51.982;5.872;2023-03-01T13:51:46;6.43;;;3.53;;
47349;SDS011;33088;51.982;5.872;2023-03-01T13:54:13;6.65;;;3.67;;
47349;SDS011;33088;51.982;5.872;2023-03-01T13:56:41;8.73;;;4.05;;
47349;SDS011;33088;51.982;5.872;2023-03-01T13:59:19;8.02;;;4.15;;
47349;SDS011;33088;51.982;5.872;2023-03-01T14:01:56;5.97;;;3.47;;
47349;SDS011;33088;51.982;5.872;2023-03-01T14:06:51;5.18;;;4.00;;
47349;SDS011;33088;51.982;5.872;2023-03-01T14:09:21;6.20;;;4.10;;
47349;SDS011;33088;51.982;5.872;2023-03-01T14:14:48;6.47;;;3.97;;
47349;SDS011;33088;51.982;5.872;2023-03-01T14:17:26;7.63;;;4.40;;
47349;SDS011;33088;51.982;5.872;2023-03-01T14:19:59;7.97;;;4.30;;
47349;SDS011;33088;51.982;5.872;2023-03-01T14:22:33;8.02;;;4.45;;
47349;SDS011;33088;51.982;5.872;2023-03-01T14:25:02;7.28;;;4.03;;
47349;SDS011;33088;51.982;5.872;2023-03-01T14:27:45;7.82;;;3.88;;
47349;SDS011;33088;51.982;5.872;2023-03-01T14:30:21;6.72;;;3.97;;
47349;SDS011;33088;51.982;5.872;2023-03-01T14:32:57;11.73;;;4.97;;
47349;SDS011;33088;51.982;5.872;2023-03-01T14:35:26;5.43;;;4.07;;
47349;SDS011;33088;51.982;5.872;2023-03-01T14:37:54;8.02;;;4.60;;
47349;SDS011;33088;51.982;5.872;2023-03-01T14:40:21;10.30;;;4.35;;
47349;SDS011;33088;51.982;5.872;2023-03-01T14:42:53;7.78;;;4.35;;
47349;SDS011;33088;51.982;5.872;2023-03-01T14:45:24;7.88;;;4.40;;
47349;SDS011;33088;51.982;5.872;2023-03-01T14:47:51;4.93;;;3.70;;
47349;SDS011;33088;51.982;5.872;2023-03-01T14:50:40;7.93;;;4.13;;
47349;SDS011;33088;51.982;5.872;2023-03-01T14:53:12;7.75;;;3.95;;
47349;SDS011;33088;51.982;5.872;2023-03-01T14:55:49;5.50;;;3.35;;
47349;SDS011;33088;51.982;5.872;2023-03-01T14:58:27;5.15;;;3.80;;
47349;SDS011;33088;51.982;5.872;2023-03-01T15:00:54;8.48;;;4.05;;
47349;SDS011;33088;51.982;5.872;2023-03-01T15:06:05;6.18;;;3.95;;
47349;SDS011;33088;51.982;5.872;2023-03-01T15:08:32;5.10;;;3.50;;
47349;SDS011;33088;51.982;5.872;2023-03-01T15:13:52;4.57;;;3.05;;
47349;SDS011;33088;51.982;5.872;2023-03-01T15:16:40;7.22;;;3.95;;
47349;SDS011;33088;51.982;5.872;2023-03-01T15:19:06;8.38;;;3.17;;
47349;SDS011;33088;51.982;5.872;2023-03-01T15:21:33;6.32;;;3.75;;
47349;SDS011;33088;51.982;5.872;2023-03-01T15:26:52;4.50;;;3.08;;
47349;SDS011;33088;51.982;5.872;2023-03-01T15:29:24;6.03;;;3.33;;
47349;SDS011;33088;51.982;5.872;2023-03-01T15:32:02;6.32;;;3.85;;
47349;SDS011;33088;51.982;5.872;2023-03-01T15:34:30;10.02;;;3.30;;
47349;SDS011;33088;51.982;5.872;2023-03-01T15:36:58;6.40;;;3.30;;
47349;SDS011;33088;51.982;5.872;2023-03-01T15:39:36;9.77;;;3.50;;
47349;SDS011;33088;51.982;5.872;2023-03-01T15:42:09;6.78;;;4.07;;
47349;SDS011;33088;51.982;5.872;2023-03-01T15:44:38;5.15;;;3.35;;
47349;SDS011;33088;51.982;5.872;2023-03-01T15:47:23;5.85;;;3.80;;
47349;SDS011;33088;51.982;5.872;2023-03-01T15:49:56;5.03;;;3.08;;
47349;SDS011;33088;51.982;5.872;2023-03-01T15:52:25;4.55;;;3.38;;
47349;SDS011;33088;51.982;5.872;2023-03-01T15:55:21;5.00;;;2.97;;
47349;SDS011;33088;51.982;5.872;2023-03-01T15:57:49;8.57;;;3.28;;
47349;SDS011;33088;51.982;5.872;2023-03-01T16:00:22;5.13;;;3.20;;
47349;SDS011;33088;51.982;5.872;2023-03-01T16:02:48;4.60;;;2.88;;
47349;SDS011;33088;51.982;5.872;2023-03-01T16:05:33;9.43;;;2.95;;
47349;SDS011;33088;51.982;5.872;2023-03-01T16:08:01;12.57;;;4.63;;
47349;SDS011;33088;51.982;5.872;2023-03-01T16:10:27;5.97;;;3.42;;
47349;SDS011;33088;51.982;5.872;2023-03-01T16:12:53;7.13;;;3.22;;
47349;SDS011;33088;51.982;5.872;2023-03-01T16:15:20;7.00;;;2.95;;
47349;SDS011;33088;51.982;5.872;2023-03-01T16:17:56;6.72;;;3.63;;
47349;SDS011;33088;51.982;5.872;2023-03-01T16:20:25;4.72;;;2.83;;
47349;SDS011;33088;51.982;5.872;2023-03-01T16:22:52;6.32;;;3.78;;
47349;SDS011;33088;51.982;5.872;2023-03-01T16:25:19;7.70;;;3.50;;
47349;SDS011;33088;51.982;5.872;2023-03-01T16:27:46;5.53;;;3.67;;
47349;SDS011;33088;51.982;5.872;2023-03-01T16:30:14;5.55;;;3.65;;
47349;SDS011;33088;51.982;5.872;2023-03-01T16:32:44;7.28;;;2.70;;
47349;SDS011;33088;51.982;5.872;2023-03-01T16:35:13;6.70;;;3.95;;
47349;SDS011;33088;51.982;5.872;2023-03-01T16:37:40;3.60;;;2.67;;
47349;SDS011;33088;51.982;5.872;2023-03-01T16:40:07;7.80;;;3.30;;
47349;SDS011;33088;51.982;5.872;2023-03-01T16:42:43;6.50;;;3.95;;
47349;SDS011;33088;51.982;5.872;2023-03-01T16:45:09;5.47;;;3.50;;
47349;SDS011;33088;51.982;5.872;2023-03-01T16:47:35;6.35;;;3.95;;
47349;SDS011;33088;51.982;5.872;2023-03-01T16:50:01;4.28;;;3.25;;
47349;SDS011;33088;51.982;5.872;2023-03-01T16:52:27;6.07;;;3.10;;
47349;SDS011;33088;51.982;5.872;2023-03-01T16:54:52;4.13;;;3.10;;
47349;SDS011;33088;51.982;5.872;2023-03-01T16:57:18;6.93;;;3.30;;
47349;SDS011;33088;51.982;5.872;2023-03-01T16:59:44;6.00;;;3.58;;
47349;SDS011;33088;51.982;5.872;2023-03-01T17:02:10;8.57;;;3.90;;
47349;SDS011;33088;51.982;5.872;2023-03-01T17:04:44;11.07;;;5.40;;
47349;SDS011;33088;51.982;5.872;2023-03-01T17:07:10;8.55;;;4.15;;
47349;SDS011;33088;51.982;5.872;2023-03-01T17:09:36;7.43;;;4.20;;